Time;durP1;ratioP1;P1;durP2;ratioP2;P2;SDS_P1;SDS_P2;PMS_P1;PMS_P2;Temp;Humidity;BMP_temperature;BMP_pressure;BME280_temperature;BME280_humidity;BME280_pressure;Samples;Min_cycle;Max_cycle;Signal;HPM_P1;HPM_P2
2022/04/15 00:00:36;;;;;;;10.07;8.67;;;;;;;11.20;64.20;101861.56;5019400;28;20258;-70
2022/04/15 00:03:02;;;;;;;9.77;8.53;;;;;;;11.19;63.67;101860.69;5018950;28;20478;-70
2022/04/15 00:05:37;;;;;;;10.60;9.47;;;;;;;11.27;63.34;101861.75;5019677;28;20410;-70
2022/04/15 00:08:06;;;;;;;9.53;8.53;;;;;;;11.12;63.93;101859.66;5019095;28;20190;-71
2022/04/15 00:10:32;;;;;;;9.10;7.80;;;;;;;11.23;64.20;101864.22;5019177;28;20437;-70
2022/04/15 00:12:58;;;;;;;10.10;8.20;;;;;;;11.43;63.11;101869.94;5019000;28;20838;-70
2022/04/15 00:15:24;;;;;;;9.03;8.10;;;;;;;11.22;63.95;101867.72;5018963;28;20430;-69
2022/04/15 00:17:50;;;;;;;11.40;9.17;;;;;;;11.32;63.82;101872.31;5019660;28;20202;-70
2022/04/15 00:20:16;;;;;;;11.00;8.10;;;;;;;10.92;64.62;101861.75;5018869;28;20257;-71
2022/04/15 00:22:41;;;;;;;10.17;8.70;;;;;;;11.16;63.69;101864.94;5018724;28;20734;-70
2022/04/15 00:25:07;;;;;;;8.13;7.43;;;;;;;10.96;65.30;101867.94;5019601;28;20271;-71
2022/04/15 00:27:33;;;;;;;13.60;9.40;;;;;;;11.36;64.17;101868.91;5018857;28;20541;-69
2022/04/15 00:29:58;;;;;;;8.70;7.40;;;;;;;10.87;65.11;101868.56;5017596;28;20676;-70
2022/04/15 00:32:24;;;;;;;9.53;8.10;;;;;;;11.08;64.44;101872.56;5019036;28;20402;-71
2022/04/15 00:34:49;;;;;;;8.07;7.23;;;;;;;11.18;64.19;101868.47;5018774;28;20528;-71
2022/04/15 00:37:14;;;;;;;8.73;7.77;;;;;;;11.00;64.48;101867.16;5018898;28;20183;-71
2022/04/15 00:39:45;;;;;;;10.10;8.13;;;;;;;11.12;64.70;101866.56;5019194;28;20198;-70
2022/04/15 00:42:10;;;;;;;11.70;7.87;;;;;;;10.73;66.11;101869.91;5018405;28;20170;-71
2022/04/15 00:44:36;;;;;;;10.33;9.30;;;;;;;10.83;65.66;101868.44;5018735;28;20414;-71
2022/04/15 00:47:07;;;;;;;9.63;7.97;;;;;;;11.19;65.01;101870.22;5019260;28;20175;-70
2022/04/15 00:49:32;;;;;;;9.00;8.03;;;;;;;11.00;65.07;101869.78;5018612;28;20191;-69
2022/04/15 00:51:58;;;;;;;10.03;7.87;;;;;;;10.52;66.83;101881.50;5018620;28;20409;-70
2022/04/15 00:54:23;;;;;;;12.00;8.33;;;;;;;11.07;65.28;101871.69;5019912;28;20266;-69
2022/04/15 00:56:50;;;;;;;9.57;8.53;;;;;;;11.03;65.12;101868.97;5018388;28;20179;-70
2022/04/15 00:59:17;;;;;;;9.77;7.40;;;;;;;10.90;65.38;101881.66;5018655;28;20185;-70
2022/04/15 01:01:43;;;;;;;8.33;7.40;;;;;;;10.96;65.25;101878.38;5018812;28;20425;-71
2022/04/15 01:04:09;;;;;;;8.20;7.40;;;;;;;10.92;65.38;101879.13;5018292;28;20486;-70
2022/04/15 01:06:36;;;;;;;9.33;7.80;;;;;;;11.02;64.72;101878.50;5018481;28;20260;-69
2022/04/15 01:09:01;;;;;;;13.80;7.50;;;;;;;10.88;65.14;101883.38;5018450;28;20455;-69
2022/04/15 01:11:27;;;;;;;9.60;7.97;;;;;;;11.25;64.63;101873.00;5017547;28;20493;-70
2022/04/15 01:13:53;;;;;;;11.83;8.10;;;;;;;11.34;64.27;101886.28;5017617;28;20171;-69
2022/04/15 01:16:20;;;;;;;8.07;7.27;;;;;;;10.76;65.28;101891.75;5018759;28;20171;-70
2022/04/15 01:18:45;;;;;;;9.30;7.40;;;;;;;11.24;64.51;101885.19;5017590;28;20166;-70
2022/04/15 01:21:12;;;;;;;10.60;7.97;;;;;;;11.45;64.03;101879.59;5018067;28;20801;-69
2022/04/15 01:23:40;;;;;;;8.23;6.97;;;;;;;10.86;65.39;101886.78;5018648;28;20211;-72
2022/04/15 01:26:05;;;;;;;8.40;7.60;;;;;;;10.80;65.87;101897.94;5018118;28;20450;-70
2022/04/15 01:28:31;;;;;;;9.60;7.47;;;;;;;10.74;65.96;101896.06;5018302;28;20508;-71
2022/04/15 01:30:56;;;;;;;10.73;7.80;;;;;;;10.71;65.94;101898.56;5018560;28;20179;-70
2022/04/15 01:33:21;;;;;;;7.93;6.93;;;;;;;11.31;64.40;101891.41;5017316;28;20175;-70
2022/04/15 01:35:47;;;;;;;8.03;6.90;;;;;;;11.05;65.04;101893.38;5018100;28;20257;-71
2022/04/15 01:38:14;;;;;;;10.30;8.00;;;;;;;11.12;64.61;101895.28;5018416;28;20557;-71
2022/04/15 01:40:40;;;;;;;9.07;7.27;;;;;;;11.20;63.78;101898.09;5018162;28;20471;-71
2022/04/15 01:43:06;;;;;;;8.53;7.40;;;;;;;10.83;65.13;101898.00;5021251;28;20874;-70
2022/04/15 01:45:31;;;;;;;8.40;7.20;;;;;;;10.57;66.28;101895.56;5022467;28;20420;-69
2022/04/15 01:47:57;;;;;;;8.80;7.90;;;;;;;10.69;66.87;101899.34;5021366;28;20174;-70
2022/04/15 01:50:23;;;;;;;9.77;7.83;;;;;;;10.69;66.24;101896.75;5021869;28;20556;-70
2022/04/15 01:52:49;;;;;;;10.67;7.33;;;;;;;10.93;65.71;101897.44;5022131;28;20173;-71
2022/04/15 01:55:14;;;;;;;11.20;7.70;;;;;;;10.86;65.35;101892.00;5021745;28;20423;-70
2022/04/15 01:57:39;;;;;;;12.60;8.00;;;;;;;11.06;64.81;101892.53;5021849;28;20459;-72
2022/04/15 02:00:05;;;;;;;10.60;8.60;;;;;;;10.66;66.21;101900.13;5022026;28;20179;-71
2022/04/15 02:02:31;;;;;;;9.43;8.53;;;;;;;10.83;66.21;101895.41;5021259;28;20219;-71
2022/04/15 02:04:56;;;;;;;12.80;8.23;;;;;;;10.96;65.87;101888.81;5021538;28;20879;-70
2022/04/15 02:07:21;;;;;;;9.93;8.77;;;;;;;10.56;67.47;101890.31;5021289;28;20195;-71
2022/04/15 02:09:47;;;;;;;11.70;10.23;;;;;;;10.51;68.10;101887.56;5021665;28;20182;-70
2022/04/15 02:12:12;;;;;;;10.80;9.47;;;;;;;10.21;69.15;101888.41;5021426;28;20175;-69
2022/04/15 02:14:37;;;;;;;10.23;9.23;;;;;;;10.05;69.97;101888.78;5022003;28;20178;-70
2022/04/15 02:17:03;;;;;;;11.33;9.87;;;;;;;10.50;69.06;101885.81;5020624;28;20178;-69
2022/04/15 02:19:28;;;;;;;13.50;10.40;;;;;;;10.53;69.02;101885.03;5021366;28;20178;-70
2022/04/15 02:21:53;;;;;;;12.77;10.67;;;;;;;10.30;69.19;101885.19;5021795;28;20175;-70
2022/04/15 02:24:19;;;;;;;12.47;10.33;;;;;;;10.14;70.11;101898.63;5021110;28;20217;-71
2022/04/15 02:26:44;;;;;;;12.13;10.77;;;;;;;10.39;69.33;101890.72;5020300;28;20185;-70
2022/04/15 02:29:10;;;;;;;15.00;10.20;;;;;;;10.38;69.19;101894.16;5021448;28;20533;-70
2022/04/15 02:31:35;;;;;;;16.47;11.13;;;;;;;10.32;70.20;101901.75;5020929;28;20254;-70
2022/04/15 02:34:01;;;;;;;12.60;10.07;;;;;;;10.43;69.08;101902.09;5021366;28;20179;-70
2022/04/15 02:36:26;;;;;;;14.80;10.87;;;;;;;10.83;68.21;101899.75;5021414;28;20175;-69
2022/04/15 02:38:52;;;;;;;14.83;10.07;;;;;;;10.54;68.32;101907.63;5020258;28;20175;-69
2022/04/15 02:41:17;;;;;;;16.40;11.67;;;;;;;10.74;68.20;101905.56;5020933;28;20179;-70
2022/04/15 02:43:43;;;;;;;15.20;10.60;;;;;;;10.64;68.97;101908.78;5020555;28;20562;-70
2022/04/15 02:46:10;;;;;;;12.20;10.50;;;;;;;10.98;67.80;101913.19;5020819;28;20221;-70
2022/04/15 02:48:35;;;;;;;12.80;9.60;;;;;;;10.34;69.17;101907.03;5020937;28;20182;-69
2022/04/15 02:51:01;;;;;;;11.03;9.77;;;;;;;10.34;70.23;101915.72;5021034;28;20414;-69
2022/04/15 02:53:27;;;;;;;13.13;9.47;;;;;;;10.41;69.28;101917.69;5020101;28;20205;-70
2022/04/15 02:55:53;;;;;;;15.80;13.10;;;;;;;10.46;69.82;101923.06;5019974;28;20512;-70
2022/04/15 02:58:19;;;;;;;13.50;8.33;;;;;;;10.37;69.42;101923.66;5021122;28;20466;-70
2022/04/15 03:00:44;;;;;;;11.70;8.50;;;;;;;10.36;69.02;101921.88;5020716;28;20171;-69
2022/04/15 03:03:11;;;;;;;9.50;8.10;;;;;;;10.13;69.00;101922.91;5019375;28;20735;-71
2022/04/15 03:05:36;;;;;;;9.83;7.90;;;;;;;10.65;68.42;101924.47;5020795;28;20167;-70
2022/04/15 03:08:01;;;;;;;8.53;7.60;;;;;;;10.78;68.17;101928.28;5020234;28;20448;-71
2022/04/15 03:10:27;;;;;;;10.20;9.00;;;;;;;10.52;68.05;101932.78;5020334;28;20175;-69
2022/04/15 03:12:52;;;;;;;10.93;8.70;;;;;;;10.27;69.40;101929.44;5020658;28;20533;-70
2022/04/15 03:15:17;;;;;;;10.70;9.23;;;;;;;10.23;68.95;101938.88;5019281;28;20179;-70
2022/04/15 03:17:43;;;;;;;10.17;9.17;;;;;;;10.55;68.43;101928.56;5020271;28;20197;-70
2022/04/15 03:20:09;;;;;;;11.70;10.50;;;;;;;10.59;68.47;101930.41;5020792;28;20190;-70
2022/04/15 03:22:36;;;;;;;11.17;9.97;;;;;;;10.31;69.50;101935.59;5019919;28;20194;-72
2022/04/15 03:25:01;;;;;;;12.30;9.80;;;;;;;10.02;69.96;101935.59;5020009;28;20527;-71
2022/04/15 03:27:27;;;;;;;11.57;10.47;;;;;;;10.49;70.74;101933.56;5020542;28;20440;-72
2022/04/15 03:29:52;;;;;;;12.60;10.37;;;;;;;10.08;71.32;101936.69;5019967;28;20174;-69
2022/04/15 03:32:17;;;;;;;12.53;10.23;;;;;;;10.57;69.67;101933.81;5020085;28;20178;-69
2022/04/15 03:34:43;;;;;;;20.03;10.13;;;;;;;10.15;70.62;101934.25;5020438;28;20417;-69
2022/04/15 03:37:08;;;;;;;12.77;11.07;;;;;;;10.60;69.89;101933.88;5019841;28;20209;-69
2022/04/15 03:39:35;;;;;;;15.20;10.50;;;;;;;10.55;69.43;101932.88;5020144;28;20250;-70
2022/04/15 03:42:01;;;;;;;11.37;10.07;;;;;;;10.29;69.98;101938.16;5020155;28;20163;-70
2022/04/15 03:44:26;;;;;;;12.43;9.77;;;;;;;10.35;70.72;101941.00;5019705;28;20674;-70
2022/04/15 03:46:51;;;;;;;14.20;10.87;;;;;;;10.10;70.74;101939.31;5019912;28;20177;-69
2022/04/15 03:49:17;;;;;;;13.43;11.13;;;;;;;10.18;71.89;101936.97;5020229;28;20179;-69
2022/04/15 03:51:42;;;;;;;14.00;12.20;;;;;;;10.56;71.07;101934.63;5019522;28;20189;-69
2022/04/15 03:54:07;;;;;;;15.10;12.77;;;;;;;10.52;70.39;101938.00;5019552;28;20265;-71
2022/04/15 03:56:34;;;;;;;16.17;13.10;;;;;;;10.32;71.48;101946.06;5020052;28;20205;-70
2022/04/15 03:58:59;;;;;;;18.40;15.43;;;;;;;10.43;71.37;101941.22;5019642;28;20170;-70
2022/04/15 04:01:25;;;;;;;19.17;15.60;;;;;;;10.48;71.49;101942.22;5019578;28;20784;-70
2022/04/15 04:03:51;;;;;;;19.57;14.80;;;;;;;10.51;71.70;101939.69;5019562;28;20382;-70
2022/04/15 04:06:17;;;;;;;17.00;14.50;;;;;;;10.62;71.04;101937.41;5018474;28;20498;-70
2022/04/15 04:08:49;;;;;;;23.43;17.20;;;;;;;10.60;71.33;101944.31;5019691;28;20509;-72
2022/04/15 04:11:15;;;;;;;20.40;16.30;;;;;;;10.50;71.47;101951.00;5019194;28;20492;-71
2022/04/15 04:13:41;;;;;;;22.20;17.80;;;;;;;10.61;71.33;101949.56;5019108;28;20508;-70
2022/04/15 04:16:07;;;;;;;24.10;17.43;;;;;;;10.29;73.10;101954.66;5019436;28;20418;-71
2022/04/15 04:18:32;;;;;;;27.77;18.00;;;;;;;10.43;72.02;101957.75;5019182;28;20423;-70
2022/04/15 04:20:57;;;;;;;22.77;18.40;;;;;;;10.18;72.78;101950.88;5019003;28;20194;-70
2022/04/15 04:23:22;;;;;;;25.93;19.23;;;;;;;10.57;71.69;101957.28;5019648;28;20198;-70
2022/04/15 04:25:48;;;;;;;23.63;18.43;;;;;;;10.58;72.08;101961.63;5019015;28;20190;-70
2022/04/15 04:28:13;;;;;;;28.23;19.70;;;;;;;10.43;72.58;101965.56;5019072;28;20258;-69
2022/04/15 04:30:39;;;;;;;23.17;18.43;;;;;;;10.32;73.08;101961.69;5019566;28;20417;-70
2022/04/15 04:33:04;;;;;;;29.90;20.93;;;;;;;10.36;73.11;101966.19;5018744;28;20182;-71
2022/04/15 04:35:30;;;;;;;27.80;21.13;;;;;;;10.40;73.18;101970.66;5018843;28;20454;-70
2022/04/15 04:37:55;;;;;;;27.83;21.70;;;;;;;10.58;72.83;101974.66;5019376;28;20256;-70
2022/04/15 04:40:20;;;;;;;26.87;21.10;;;;;;;10.97;71.78;101968.81;5018935;28;20265;-70
2022/04/15 04:42:46;;;;;;;26.20;19.93;;;;;;;10.54;73.23;101970.19;5018564;28;20203;-70
2022/04/15 04:45:12;;;;;;;26.80;19.67;;;;;;;10.49;72.04;101974.41;5018955;28;20171;-69
2022/04/15 04:47:38;;;;;;;26.90;19.73;;;;;;;10.48;72.67;101975.25;5017987;28;20413;-69
2022/04/15 04:50:06;;;;;;;27.97;21.97;;;;;;;10.79;71.89;101970.06;5018709;28;20198;-70
2022/04/15 04:52:31;;;;;;;25.13;20.00;;;;;;;10.27;72.33;101972.00;5018370;28;20392;-70
2022/04/15 04:54:56;;;;;;;27.43;21.07;;;;;;;10.49;72.32;101975.28;5018610;28;20891;-70
2022/04/15 04:57:22;;;;;;;28.37;20.83;;;;;;;10.43;72.83;101975.09;5018367;28;20281;-70
2022/04/15 04:59:47;;;;;;;31.80;22.00;;;;;;;10.66;71.91;101980.13;5018099;28;20179;-70
2022/04/15 05:02:12;;;;;;;28.60;21.43;;;;;;;10.57;72.05;101980.75;5018231;28;20241;-69
2022/04/15 05:04:39;;;;;;;25.10;20.23;;;;;;;10.47;72.41;101991.72;5018587;28;20444;-70
2022/04/15 05:07:05;;;;;;;27.10;20.30;;;;;;;10.63;71.81;101996.56;5018745;28;20187;-70
2022/04/15 05:09:30;;;;;;;25.57;18.90;;;;;;;10.59;71.32;101998.22;5017730;28;20484;-70
2022/04/15 05:11:55;;;;;;;25.20;17.83;;;;;;;10.25;72.79;101999.72;5018231;28;20189;-70
2022/04/15 05:14:21;;;;;;;22.33;17.60;;;;;;;10.51;72.44;102011.84;5018733;28;20198;-70
2022/04/15 05:16:46;;;;;;;26.27;18.37;;;;;;;10.88;72.29;102005.09;5020975;28;20269;-70
2022/04/15 05:19:12;;;;;;;23.77;17.50;;;;;;;10.41;72.26;102003.72;5024877;28;20179;-70
2022/04/15 05:21:38;;;;;;;22.83;17.40;;;;;;;10.65;72.56;102014.84;5024505;28;20171;-71
2022/04/15 05:24:03;;;;;;;23.40;16.60;;;;;;;10.55;72.20;102016.31;5024667;28;20202;-70
2022/04/15 05:26:29;;;;;;;23.87;16.53;;;;;;;10.60;72.12;102013.00;5024599;28;20457;-71
2022/04/15 05:28:54;;;;;;;26.63;16.93;;;;;;;10.89;71.79;102014.69;5025227;28;20406;-70
2022/04/15 05:31:20;;;;;;;25.30;17.60;;;;;;;10.49;72.45;102021.34;5023869;28;20210;-70
2022/04/15 05:33:45;;;;;;;24.87;17.40;;;;;;;10.78;71.55;102020.50;5023540;28;20186;-70
2022/04/15 05:36:10;;;;;;;29.37;18.57;;;;;;;10.39;72.88;102028.88;5024510;28;20185;-69
2022/04/15 05:38:36;;;;;;;27.13;18.23;;;;;;;10.52;73.37;102031.88;5022458;28;20182;-70
2022/04/15 05:41:01;;;;;;;27.87;20.93;;;;;;;10.60;72.81;102031.25;5004535;28;20171;-71
2022/04/15 05:43:33;;;;;;;32.00;21.17;;;;;;;10.77;72.31;102030.84;5004891;28;20203;-70
2022/04/15 05:45:58;;;;;;;27.93;20.17;;;;;;;10.51;73.30;102036.19;5004838;28;20171;-70
2022/04/15 05:48:23;;;;;;;31.30;19.50;;;;;;;10.93;72.29;102035.72;5004306;28;20664;-70
2022/04/15 05:50:49;;;;;;;32.57;21.20;;;;;;;10.56;73.12;102042.44;5007081;28;20178;-69
2022/04/15 05:53:14;;;;;;;31.67;21.50;;;;;;;10.48;73.20;102046.53;5024759;28;20183;-70
2022/04/15 05:55:39;;;;;;;32.20;21.07;;;;;;;10.25;75.13;102050.97;5024536;28;20261;-70
2022/04/15 05:58:06;;;;;;;39.80;22.63;;;;;;;10.45;74.18;102054.25;5023890;28;20265;-71
2022/04/15 06:00:31;;;;;;;40.17;23.33;;;;;;;10.11;75.05;102055.75;5024299;28;20174;-71
2022/04/15 06:02:56;;;;;;;31.87;21.63;;;;;;;10.54;73.94;102056.25;5023938;28;20463;-67
2022/04/15 06:05:24;;;;;;;38.50;23.83;;;;;;;10.67;73.36;102049.69;5024781;28;20170;-70
2022/04/15 06:07:50;;;;;;;35.60;22.97;;;;;;;10.55;74.46;102058.94;5024191;28;20256;-71
2022/04/15 06:10:15;;;;;;;42.30;23.73;;;;;;;10.77;73.85;102056.94;5015816;28;20442;-72
2022/04/15 06:15:52;;;;;;;37.73;22.40;;;;;;;10.88;73.30;102063.38;4941258;29;20449;-72
2022/04/15 06:18:18;;;;;;;37.90;23.03;;;;;;;10.86;73.24;102069.41;4927121;29;20433;-72
2022/04/15 06:20:44;;;;;;;40.60;25.20;;;;;;;11.12;72.46;102065.84;4973018;28;20516;-72
2022/04/15 06:23:09;;;;;;;43.10;24.83;;;;;;;10.73;73.92;102070.72;5024892;28;20522;-71
2022/04/15 06:25:35;;;;;;;36.73;25.30;;;;;;;10.89;73.92;102080.81;5026029;28;20190;-72
2022/04/15 06:28:00;;;;;;;41.10;24.00;;;;;;;10.36;75.00;102088.72;5022332;28;20274;-72
2022/04/15 06:30:27;;;;;;;39.77;25.90;;;;;;;10.17;75.95;102096.75;5003899;28;20194;-72
2022/04/15 06:32:53;;;;;;;39.53;23.37;;;;;;;11.15;73.48;102092.84;5010365;28;20167;-72
2022/04/15 06:35:18;;;;;;;39.77;26.20;;;;;;;10.71;74.22;102096.78;5020537;28;20434;-68
2022/04/15 06:37:43;;;;;;;38.43;23.90;;;;;;;10.76;74.14;102089.97;5020456;28;20821;-70
2022/04/15 06:40:09;;;;;;;42.17;24.43;;;;;;;10.78;74.16;102093.53;5009962;28;20184;-70
2022/04/15 06:42:35;;;;;;;40.97;25.50;;;;;;;11.00;74.29;102098.50;5001239;28;20200;-69
2022/04/15 06:45:00;;;;;;;47.07;24.70;;;;;;;11.14;73.23;102105.03;5018867;28;20434;-72
2022/04/15 06:47:26;;;;;;;45.60;24.37;;;;;;;11.24;72.83;102117.50;5021516;28;20269;-73
2022/04/15 06:49:51;;;;;;;48.27;27.93;;;;;;;10.69;74.84;102121.94;5029388;28;20186;-75
2022/04/15 06:52:18;;;;;;;36.50;24.90;;;;;;;10.87;74.30;102123.34;5028416;28;20206;-73
2022/04/15 06:54:44;;;;;;;40.00;24.67;;;;;;;11.24;73.69;102119.22;5024943;28;20450;-73
2022/04/15 06:57:09;;;;;;;39.07;26.00;;;;;;;10.95;73.78;102127.94;5031185;28;20448;-73
2022/04/15 06:59:35;;;;;;;44.37;26.13;;;;;;;10.64;74.67;102122.63;5030849;28;20182;-72
2022/04/15 07:02:01;;;;;;;35.53;22.30;;;;;;;11.21;75.21;102132.19;5018949;28;20247;-74
2022/04/15 07:04:27;;;;;;;36.67;24.20;;;;;;;11.38;73.01;102128.34;5018896;28;20507;-74
2022/04/15 07:06:53;;;;;;;39.90;24.10;;;;;;;11.02;73.24;102133.38;5006018;28;20894;-75
2022/04/15 07:09:18;;;;;;;42.30;25.67;;;;;;;11.35;73.20;102137.81;5027226;28;20463;-73
2022/04/15 07:11:44;;;;;;;40.77;24.40;;;;;;;11.00;73.38;102141.16;5029311;28;20221;-73
2022/04/15 07:14:09;;;;;;;37.50;23.13;;;;;;;11.27;73.02;102141.09;5020022;28;20191;-73
2022/04/15 07:16:34;;;;;;;36.80;23.83;;;;;;;10.99;73.18;102136.78;5036367;28;20185;-72
2022/04/15 07:19:04;;;;;;;38.73;23.17;;;;;;;11.43;72.28;102134.59;5018532;28;20178;-74
2022/04/15 07:21:39;;;;;;;37.47;22.53;;;;;;;11.42;72.57;102132.81;5023621;28;20196;-74
2022/04/15 07:24:05;;;;;;;35.93;22.40;;;;;;;11.35;72.63;102127.34;5039347;28;20915;-71
2022/04/15 07:26:31;;;;;;;34.03;22.07;;;;;;;11.39;72.11;102132.72;5022701;28;20457;-73
2022/04/15 07:28:57;;;;;;;34.10;21.50;;;;;;;11.40;71.47;102131.88;5035805;28;20420;-73
2022/04/15 07:31:23;;;;;;;30.07;22.27;;;;;;;11.49;71.51;102140.81;5026930;28;20404;-75
2022/04/15 07:33:49;;;;;;;30.27;22.03;;;;;;;11.53;70.92;102138.34;5028213;28;20194;-74
2022/04/15 07:39:09;;;;;;;35.13;22.47;;;;;;;11.08;72.71;102157.03;5018330;28;20515;-74
2022/04/15 07:41:36;;;;;;;32.50;22.00;;;;;;;10.24;76.18;102166.47;5028114;28;20437;-71
2022/04/15 07:44:03;;;;;;;30.50;21.30;;;;;;;10.85;74.89;102166.75;5031250;28;20440;-72
2022/04/15 07:46:29;;;;;;;35.37;20.70;;;;;;;10.27;76.48;102177.03;5027832;28;20492;-71
2022/04/15 07:48:54;;;;;;;37.80;21.17;;;;;;;10.76;74.73;102178.66;5038331;28;20421;-71
2022/04/15 07:51:19;;;;;;;30.93;22.10;;;;;;;11.01;74.61;102178.56;5029759;28;20502;-70
2022/04/15 07:53:45;;;;;;;31.53;21.37;;;;;;;11.59;72.70;102174.19;5012395;28;20180;-72
2022/04/15 07:56:10;;;;;;;35.67;21.00;;;;;;;11.21;73.10;102182.66;5024457;28;20599;-70
2022/04/15 07:58:35;;;;;;;32.00;20.90;;;;;;;10.07;76.63;102187.63;5019826;28;20240;-69
2022/04/15 08:01:01;;;;;;;27.60;20.67;;;;;;;10.14;75.87;102193.09;5034206;28;20270;-69
2022/04/15 08:03:29;;;;;;;29.47;19.50;;;;;;;10.29;76.18;102204.03;5026547;28;20241;-73
2022/04/15 08:05:54;;;;;;;21.50;16.90;;;;;;;10.67;73.84;102191.41;5022587;28;20190;-72
2022/04/15 08:08:20;;;;;;;20.47;17.00;;;;;;;11.29;72.29;102188.13;5018853;28;20857;-70
2022/04/15 08:10:48;;;;;;;21.10;15.67;;;;;;;10.73;72.75;102191.63;5029860;28;20628;-70
2022/04/15 08:13:13;;;;;;;22.37;16.40;;;;;;;10.94;72.02;102187.91;5020872;28;20521;-72
2022/04/15 08:15:38;;;;;;;18.90;14.67;;;;;;;11.73;69.64;102191.16;5028168;28;20738;-73
2022/04/15 08:18:04;;;;;;;20.30;15.93;;;;;;;11.22;69.12;102201.84;5025457;28;20179;-72
2022/04/15 08:20:30;;;;;;;18.47;15.53;;;;;;;11.42;69.93;102211.16;5034696;28;20185;-71
2022/04/15 08:22:55;;;;;;;21.43;16.00;;;;;;;11.56;68.52;102205.44;5021251;28;20897;-72
2022/04/15 08:25:24;;;;;;;17.63;15.47;;;;;;;11.82;68.31;102202.69;5028439;28;20229;-72
2022/04/15 08:27:49;;;;;;;17.33;15.50;;;;;;;11.54;68.50;102204.50;5020400;28;20225;-72
2022/04/15 08:30:14;;;;;;;15.00;13.03;;;;;;;10.56;70.22;102213.66;5025913;28;20438;-72
2022/04/15 08:32:40;;;;;;;18.70;15.00;;;;;;;10.51;71.85;102215.22;5034611;28;20190;-72
2022/04/15 08:35:07;;;;;;;18.47;16.47;;;;;;;10.71;71.38;102213.28;5023047;28;20178;-72
2022/04/15 08:37:33;;;;;;;18.40;15.67;;;;;;;11.05;70.15;102204.78;5029732;28;20205;-71
2022/04/15 08:40:00;;;;;;;17.87;15.97;;;;;;;11.34;69.37;102212.66;5019200;28;20408;-72
2022/04/15 08:42:25;;;;;;;18.50;14.57;;;;;;;11.70;68.15;102211.94;5018004;28;20426;-71
2022/04/15 08:44:52;;;;;;;19.63;16.10;;;;;;;11.95;66.61;102216.16;5032823;28;20475;-71
2022/04/15 08:47:18;;;;;;;18.97;15.90;;;;;;;11.91;67.10;102216.03;5030752;28;20541;-70
2022/04/15 08:49:44;;;;;;;17.17;14.90;;;;;;;11.38;67.42;102222.34;5028419;28;20492;-72
2022/04/15 08:52:11;;;;;;;20.90;16.60;;;;;;;11.45;68.55;102228.63;5022431;28;20539;-71
2022/04/15 08:54:36;;;;;;;19.13;16.07;;;;;;;11.29;68.74;102225.53;5033737;28;20805;-72
2022/04/15 08:57:02;;;;;;;20.40;16.70;;;;;;;11.36;67.51;102229.22;5022767;28;20440;-72
2022/04/15 08:59:27;;;;;;;18.37;16.20;;;;;;;11.51;67.56;102241.00;5028391;28;20189;-70
2022/04/15 09:01:53;;;;;;;18.30;15.47;;;;;;;11.79;67.33;102240.94;5021743;28;20185;-71
2022/04/15 09:04:18;;;;;;;20.37;17.73;;;;;;;11.96;66.17;102243.19;5002713;28;20253;-71
2022/04/15 09:06:44;;;;;;;17.53;15.67;;;;;;;11.87;66.50;102245.53;5019924;28;20205;-70
2022/04/15 09:09:14;;;;;;;18.47;15.50;;;;;;;12.04;66.36;102252.16;5023531;28;20189;-72
2022/04/15 09:11:41;;;;;;;18.20;16.30;;;;;;;11.72;67.08;102257.28;5028126;28;20179;-71
2022/04/15 09:14:11;;;;;;;17.10;14.80;;;;;;;11.99;66.05;102258.97;5025308;28;20488;-72
2022/04/15 09:16:42;;;;;;;17.93;16.10;;;;;;;12.06;66.09;102260.03;5028753;28;20467;-71
2022/04/15 09:19:09;;;;;;;19.90;16.97;;;;;;;11.62;67.20;102269.22;5039073;28;20974;-72
2022/04/15 09:21:35;;;;;;;19.50;15.83;;;;;;;11.57;67.39;102275.13;5026707;28;20521;-73
2022/04/15 09:24:00;;;;;;;19.83;17.00;;;;;;;11.84;65.60;102268.94;5024527;28;20516;-71
2022/04/15 09:26:26;;;;;;;20.83;16.77;;;;;;;11.36;67.17;102278.84;5022658;28;20477;-73
2022/04/15 09:28:53;;;;;;;19.87;16.90;;;;;;;11.67;66.66;102282.41;5020259;28;20194;-70
2022/04/15 09:31:20;;;;;;;18.90;16.90;;;;;;;11.38;67.60;102290.22;5024893;28;20198;-72
2022/04/15 09:34:02;;;;;;;22.50;17.43;;;;;;;11.28;68.09;102288.16;5016618;28;20438;-72
2022/04/15 09:36:28;;;;;;;22.77;18.17;;;;;;;11.42;68.04;102280.75;5021231;28;20848;-70
2022/04/15 09:39:04;;;;;;;24.27;18.23;;;;;;;10.73;70.11;102292.44;5017734;28;20496;-70
2022/04/15 09:41:30;;;;;;;22.73;18.17;;;;;;;11.65;68.11;102294.53;5018072;28;20429;-72
2022/04/15 09:44:00;;;;;;;21.03;17.20;;;;;;;11.26;68.54;102300.28;5018000;28;20500;-72
2022/04/15 09:46:27;;;;;;;21.90;18.20;;;;;;;11.78;68.11;102301.91;5018029;28;20502;-72
2022/04/15 09:49:03;;;;;;;20.60;16.47;;;;;;;11.71;67.03;102297.31;5017910;28;20408;-72
2022/04/15 09:51:37;;;;;;;21.50;17.07;;;;;;;11.33;68.27;102306.59;5017982;28;20410;-71
2022/04/15 09:54:06;;;;;;;21.60;16.10;;;;;;;12.08;65.94;102300.16;5019547;28;20445;-70
2022/04/15 09:56:34;;;;;;;22.40;19.20;;;;;;;11.36;67.78;102306.69;5020885;28;20412;-71
2022/04/15 09:59:05;;;;;;;21.17;17.90;;;;;;;11.37;68.48;102314.56;5028601;28;20685;-71
2022/04/15 10:01:32;;;;;;;22.63;18.67;;;;;;;11.46;68.02;102309.63;5018135;28;20413;-71
2022/04/15 10:03:58;;;;;;;22.60;18.47;;;;;;;11.72;67.17;102312.16;5027091;28;20477;-72
2022/04/15 10:06:25;;;;;;;20.20;17.53;;;;;;;11.84;67.02;102313.34;5023530;28;20699;-71
2022/04/15 10:08:51;;;;;;;23.70;19.03;;;;;;;12.33;65.06;102313.94;5022394;28;20424;-70
2022/04/15 10:11:17;;;;;;;20.63;17.40;;;;;;;12.56;64.51;102319.78;5020998;28;20437;-71
2022/04/15 10:13:44;;;;;;;21.40;17.70;;;;;;;12.13;65.74;102309.91;5027983;28;20409;-70
2022/04/15 10:16:10;;;;;;;20.37;18.17;;;;;;;12.32;65.22;102320.00;5041194;28;20202;-71
2022/04/15 10:18:36;;;;;;;21.90;17.70;;;;;;;12.39;64.71;102325.44;5041137;28;20448;-72
2022/04/15 10:21:03;;;;;;;20.70;17.63;;;;;;;12.75;64.39;102316.81;5018879;28;20420;-72
2022/04/15 10:23:29;;;;;;;22.10;17.90;;;;;;;12.87;62.98;102323.22;5031585;28;20484;-72
2022/04/15 10:25:56;;;;;;;20.73;17.27;;;;;;;12.70;63.89;102320.16;5035079;28;20439;-71
2022/04/15 10:28:37;;;;;;;19.70;16.63;;;;;;;12.33;63.71;102322.66;5029385;28;20683;-72
2022/04/15 10:31:08;;;;;;;20.93;17.10;;;;;;;12.24;65.02;102322.41;5024925;28;20434;-71
2022/04/15 10:33:35;;;;;;;21.20;18.00;;;;;;;12.64;63.75;102327.00;5019200;28;20396;-71
2022/04/15 10:36:21;;;;;;;19.67;17.23;;;;;;;12.18;64.46;102328.34;5008902;28;20418;-73
2022/04/15 10:39:02;;;;;;;19.17;17.10;;;;;;;11.82;65.49;102333.34;5026017;28;20416;-73
2022/04/15 10:41:28;;;;;;;19.53;17.40;;;;;;;11.92;65.97;102335.38;5021491;28;20439;-73
2022/04/15 10:43:57;;;;;;;21.30;17.87;;;;;;;12.55;64.63;102334.59;5020951;28;20466;-73
2022/04/15 10:46:30;;;;;;;19.40;16.00;;;;;;;12.05;65.34;102332.31;5020301;28;20389;-71
2022/04/15 10:49:00;;;;;;;19.73;17.53;;;;;;;12.28;65.23;102339.94;5039551;28;20755;-72
2022/04/15 10:51:30;;;;;;;20.23;17.20;;;;;;;12.67;63.85;102338.41;5023168;28;20404;-72
2022/04/15 10:53:56;;;;;;;23.07;17.90;;;;;;;12.73;63.62;102344.69;5019187;28;20491;-72
2022/04/15 10:56:23;;;;;;;22.83;18.13;;;;;;;12.87;63.65;102342.41;5017963;28;20412;-72
2022/04/15 11:02:01;;;;;;;19.80;17.67;;;;;;;12.43;64.22;102345.63;5003806;28;20522;-72
2022/04/15 11:04:26;;;;;;;19.10;16.67;;;;;;;12.17;65.28;102346.59;5031680;28;20483;-71
2022/04/15 11:06:57;;;;;;;19.70;16.80;;;;;;;11.94;66.14;102349.38;5018368;28;20778;-71
2022/04/15 11:09:23;;;;;;;22.43;17.43;;;;;;;11.98;66.61;102350.41;5033163;28;20753;-71
2022/04/15 11:11:53;;;;;;;19.37;16.20;;;;;;;12.16;66.70;102353.53;5025824;28;20397;-71
2022/04/15 11:14:31;;;;;;;23.03;16.87;;;;;;;12.19;66.62;102350.13;5035822;28;20403;-71
2022/04/15 11:17:01;;;;;;;24.60;16.87;;;;;;;12.20;65.71;102358.03;5024045;28;20412;-71